Time;durP1;ratioP1;P1;durP2;ratioP2;P2;SDS_P1;SDS_P2;PMS_P1;PMS_P2;Temp;Humidity;BMP_temperature;BMP_pressure;BME280_temperature;BME280_humidity;BME280_pressure;Samples;Min_cycle;Max_cycle;Signal;HPM_P1;HPM_P2
2021/07/26 00:02:19;;;;;;;17.27;6.30;;;24.20;75.30;;;;;;5083872;28;20116;-69
2021/07/26 00:04:48;;;;;;;29.00;6.20;;;24.20;75.20;;;;;;5094051;28;20111;-69
2021/07/26 00:07:14;;;;;;;22.70;5.63;;;24.20;75.20;;;;;;5094839;28;20051;-69
2021/07/26 00:09:39;;;;;;;28.58;6.00;;;24.10;75.30;;;;;;5093251;28;20483;-69
2021/07/26 00:12:06;;;;;;;25.10;6.18;;;24.10;75.40;;;;;;5085973;28;20062;-69
2021/07/26 00:14:33;;;;;;;32.30;6.57;;;24.10;75.50;;;;;;5093870;28;20028;-69
2021/07/26 00:16:59;;;;;;;27.35;7.20;;;24.00;75.60;;;;;;5094426;28;20032;-69
2021/07/26 00:19:24;;;;;;;31.33;8.43;;;24.00;75.70;;;;;;5093675;28;20039;-69
2021/07/26 00:21:50;;;;;;;29.80;8.32;;;24.00;76.00;;;;;;5092345;28;20034;-69
2021/07/26 00:24:17;;;;;;;30.75;9.15;;;23.90;76.20;;;;;;5092427;28;20490;-69
2021/07/26 00:26:43;;;;;;;26.98;10.23;;;23.90;76.60;;;;;;5094240;28;20028;-70
2021/07/26 00:29:09;;;;;;;19.67;9.15;;;23.90;76.90;;;;;;5082484;28;20024;-69
2021/07/26 00:31:34;;;;;;;30.58;11.07;;;23.90;77.10;;;;;;5090748;28;20054;-69
2021/07/26 00:34:19;;;;;;;21.58;10.27;;;23.90;77.30;;;;;;5089910;28;20047;-70
2021/07/26 00:36:51;;;;;;;20.95;10.43;;;23.90;77.60;;;;;;5086757;28;20025;-70
2021/07/26 00:39:20;;;;;;;17.95;9.73;;;23.90;77.80;;;;;;5078548;28;20369;-69
2021/07/26 00:41:47;;;;;;;25.02;10.45;;;23.80;77.80;;;;;;5089226;28;20099;-69
2021/07/26 00:44:14;;;;;;;15.80;9.23;;;23.80;77.90;;;;;;5086110;28;20391;-69
2021/07/26 00:46:40;;;;;;;21.02;9.63;;;23.80;78.00;;;;;;5093865;28;20040;-70
2021/07/26 00:49:11;;;;;;;26.80;10.63;;;23.80;78.00;;;;;;5093567;28;20032;-69
2021/07/26 00:51:38;;;;;;;35.17;9.88;;;23.80;78.00;;;;;;5086313;28;20029;-69
2021/07/26 00:54:05;;;;;;;38.10;10.18;;;23.80;78.00;;;;;;5087957;28;20039;-70
2021/07/26 00:56:31;;;;;;;49.92;10.27;;;23.80;78.00;;;;;;5080375;28;20475;-70
2021/07/26 00:58:57;;;;;;;35.67;9.48;;;23.80;78.00;;;;;;5094466;28;20035;-70
2021/07/26 01:01:23;;;;;;;42.05;10.10;;;23.80;77.90;;;;;;5088730;28;20028;-69
2021/07/26 01:03:49;;;;;;;41.33;9.18;;;23.80;77.90;;;;;;5086983;28;20035;-69
2021/07/26 01:06:15;;;;;;;42.47;9.80;;;23.80;77.90;;;;;;5091149;28;20033;-69
2021/07/26 01:08:41;;;;;;;26.80;9.30;;;23.80;77.90;;;;;;5086800;28;20102;-69
2021/07/26 01:11:07;;;;;;;20.02;9.55;;;23.80;78.10;;;;;;5089405;28;20518;-69
2021/07/26 01:13:33;;;;;;;21.02;8.77;;;23.70;78.20;;;;;;5093463;28;20049;-69
2021/07/26 01:15:59;;;;;;;19.33;8.73;;;23.70;78.30;;;;;;5086077;28;20759;-69
2021/07/26 01:18:30;;;;;;;22.90;8.68;;;23.70;78.40;;;;;;5091386;28;20103;-69
2021/07/26 01:20:58;;;;;;;23.77;8.85;;;23.60;78.40;;;;;;5090292;28;20089;-69
2021/07/26 01:23:25;;;;;;;24.95;10.10;;;23.60;78.40;;;;;;5082483;28;20111;-69
2021/07/26 01:25:52;;;;;;;22.63;8.30;;;23.60;78.50;;;;;;5086987;28;20111;-69
2021/07/26 01:28:22;;;;;;;20.95;9.13;;;23.60;78.60;;;;;;5087711;28;20044;-69
2021/07/26 01:30:48;;;;;;;33.13;9.27;;;23.60;78.60;;;;;;5078792;28;20027;-69
2021/07/26 01:33:16;;;;;;;35.85;10.00;;;23.60;78.40;;;;;;5080266;28;20048;-70
2021/07/26 01:35:42;;;;;;;24.15;9.68;;;23.50;78.40;;;;;;5083277;28;20035;-69
2021/07/26 01:38:09;;;;;;;31.65;8.93;;;23.50;78.50;;;;;;5091326;28;20040;-69
2021/07/26 01:40:38;;;;;;;18.73;8.85;;;23.50;78.60;;;;;;5085256;28;20085;-70
2021/07/26 01:43:05;;;;;;;15.63;8.48;;;23.40;78.70;;;;;;5078157;28;20032;-69
2021/07/26 01:45:32;;;;;;;15.43;8.25;;;23.50;78.80;;;;;;5085465;28;21206;-70
2021/07/26 01:48:11;;;;;;;25.65;8.65;;;23.40;78.50;;;;;;5081215;28;20036;-69
2021/07/26 01:51:02;;;;;;;26.52;8.43;;;23.40;78.30;;;;;;5091102;28;20036;-69
2021/07/26 01:53:29;;;;;;;33.08;8.52;;;23.40;78.20;;;;;;5081266;28;20063;-69
2021/07/26 01:55:55;;;;;;;34.97;8.43;;;23.40;77.80;;;;;;5082876;28;20105;-69
2021/07/26 01:58:21;;;;;;;37.17;8.00;;;23.30;77.50;;;;;;5084881;28;20101;-69
2021/07/26 02:00:46;;;;;;;23.77;8.45;;;23.30;77.10;;;;;;5083596;28;20460;-69
2021/07/26 02:03:12;;;;;;;29.48;8.48;;;23.30;77.30;;;;;;5081826;28;20028;-69
2021/07/26 02:05:38;;;;;;;20.13;7.97;;;23.20;77.50;;;;;;5086053;28;20020;-69
2021/07/26 02:08:03;;;;;;;18.98;8.25;;;23.20;77.50;;;;;;5079838;28;20024;-69
2021/07/26 02:10:29;;;;;;;21.83;8.88;;;23.20;77.70;;;;;;5085527;28;20060;-69
2021/07/26 02:12:58;;;;;;;21.20;7.95;;;23.20;77.80;;;;;;5085835;28;20036;-69
2021/07/26 02:15:24;;;;;;;29.05;8.80;;;23.20;77.70;;;;;;5091915;28;20484;-69
2021/07/26 02:17:50;;;;;;;30.40;9.25;;;23.20;77.70;;;;;;5089661;28;20098;-69
2021/07/26 02:20:16;;;;;;;17.00;8.27;;;23.10;77.50;;;;;;5084305;28;20048;-69
2021/07/26 02:22:43;;;;;;;22.13;8.13;;;23.10;77.60;;;;;;5090597;28;20386;-69
2021/07/26 02:25:12;;;;;;;20.88;8.43;;;23.20;77.70;;;;;;5092047;28;20016;-69
2021/07/26 02:27:37;;;;;;;18.52;8.18;;;23.10;77.70;;;;;;5087128;28;20023;-69
2021/07/26 02:30:04;;;;;;;22.38;7.75;;;23.00;77.70;;;;;;5091847;28;20032;-69
2021/07/26 02:32:30;;;;;;;17.75;7.47;;;23.00;77.60;;;;;;5073540;28;20052;-69
2021/07/26 02:34:55;;;;;;;17.52;7.93;;;23.00;77.20;;;;;;5083389;28;20024;-69
2021/07/26 02:37:21;;;;;;;19.70;8.13;;;22.90;77.00;;;;;;5075983;28;20130;-69
2021/07/26 02:39:46;;;;;;;16.45;8.20;;;23.00;77.10;;;;;;5081538;28;20093;-69
2021/07/26 02:42:12;;;;;;;16.73;7.55;;;23.00;77.00;;;;;;5091324;28;20028;-69
2021/07/26 02:44:38;;;;;;;23.90;8.30;;;22.90;76.90;;;;;;5092742;28;20052;-69
2021/07/26 02:47:04;;;;;;;22.38;7.13;;;22.90;77.00;;;;;;5090621;28;20038;-69
2021/07/26 02:49:30;;;;;;;39.88;7.20;;;22.90;77.00;;;;;;5091511;28;20024;-69
2021/07/26 02:51:56;;;;;;;24.10;6.85;;;22.80;76.70;;;;;;5092412;28;20050;-69
2021/07/26 02:54:22;;;;;;;27.85;7.90;;;22.80;76.70;;;;;;5091326;28;20077;-69
2021/07/26 02:56:47;;;;;;;13.85;6.68;;;22.80;76.80;;;;;;5091618;28;20428;-69
2021/07/26 02:59:13;;;;;;;18.50;8.32;;;22.70;76.80;;;;;;5091889;28;20105;-69
2021/07/26 03:01:38;;;;;;;23.67;7.70;;;22.70;77.10;;;;;;5092360;28;20028;-69
2021/07/26 03:04:04;;;;;;;30.08;7.55;;;22.70;77.30;;;;;;5090820;28;20070;-69
2021/07/26 03:06:30;;;;;;;22.83;8.43;;;22.70;77.50;;;;;;5089101;28;20387;-69
2021/07/26 03:08:56;;;;;;;15.88;7.35;;;22.70;77.70;;;;;;5090677;28;20077;-69
2021/07/26 03:11:21;;;;;;;18.58;8.15;;;22.70;77.90;;;;;;5091087;28;20047;-70
2021/07/26 03:13:47;;;;;;;19.95;8.50;;;22.70;78.00;;;;;;5090505;28;20089;-69
2021/07/26 03:16:15;;;;;;;19.80;7.85;;;22.60;78.00;;;;;;5088420;28;20024;-69
2021/07/26 03:18:42;;;;;;;21.23;8.05;;;22.60;78.20;;;;;;5090460;28;20483;-69
2021/07/26 03:21:13;;;;;;;28.70;9.68;;;22.60;78.30;;;;;;5090054;28;20032;-69
2021/07/26 03:23:39;;;;;;;18.77;8.73;;;22.60;78.30;;;;;;5090882;28;20085;-69
2021/07/26 03:26:06;;;;;;;13.50;7.72;;;22.60;78.40;;;;;;5080202;28;20024;-69
2021/07/26 03:28:32;;;;;;;19.65;8.05;;;22.50;78.40;;;;;;5078626;28;20024;-69
2021/07/26 03:30:58;;;;;;;16.85;8.60;;;22.50;78.60;;;;;;5091466;28;20035;-69
2021/07/26 03:33:24;;;;;;;25.52;8.10;;;22.50;78.70;;;;;;5083797;28;20384;-69
2021/07/26 03:35:49;;;;;;;17.77;7.75;;;22.50;78.80;;;;;;5087220;28;20043;-69
2021/07/26 03:38:15;;;;;;;19.73;8.10;;;22.50;78.70;;;;;;5090496;28;20435;-69
2021/07/26 03:40:40;;;;;;;13.13;7.60;;;22.50;78.80;;;;;;5091085;28;20477;-70
2021/07/26 03:43:06;;;;;;;14.27;7.78;;;22.50;78.70;;;;;;5092041;28;20028;-69
2021/07/26 03:45:32;;;;;;;19.90;8.43;;;22.40;78.50;;;;;;5091487;28;20383;-69
2021/07/26 03:47:59;;;;;;;19.70;8.98;;;22.40;78.30;;;;;;5095448;28;20042;-70
2021/07/26 03:50:27;;;;;;;16.15;8.80;;;22.40;78.50;;;;;;5080342;28;20054;-69
2021/07/26 03:52:55;;;;;;;21.35;10.48;;;22.40;78.70;;;;;;5094439;28;20032;-69
2021/07/26 03:55:25;;;;;;;22.52;12.30;;;22.40;79.00;;;;;;5095516;28;20111;-69
2021/07/26 03:57:52;;;;;;;20.17;12.43;;;22.40;79.50;;;;;;5081778;28;20111;-69
2021/07/26 04:00:23;;;;;;;24.42;13.48;;;22.40;80.00;;;;;;5095020;28;20032;-69
2021/07/26 04:02:55;;;;;;;31.00;15.98;;;22.30;80.30;;;;;;5091234;28;20471;-69
2021/07/26 04:05:26;;;;;;;28.15;15.43;;;22.30;81.00;;;;;;5093244;28;20028;-69
2021/07/26 04:07:51;;;;;;;28.90;16.67;;;22.30;81.40;;;;;;5091199;28;20078;-69
2021/07/26 04:10:18;;;;;;;31.10;17.30;;;22.30;81.90;;;;;;5092799;28;20032;-68
2021/07/26 04:12:48;;;;;;;30.65;16.63;;;22.30;82.50;;;;;;5090213;28;20044;-69
2021/07/26 04:15:14;;;;;;;27.83;18.08;;;22.30;82.90;;;;;;5092844;28;20024;-69
2021/07/26 04:17:39;;;;;;;33.03;17.95;;;22.30;83.20;;;;;;5093963;28;20106;-69
2021/07/26 04:20:06;;;;;;;31.98;18.80;;;22.30;83.50;;;;;;5093053;28;20031;-69
2021/07/26 04:22:32;;;;;;;31.17;19.38;;;22.30;83.70;;;;;;5091365;28;20391;-69
2021/07/26 04:25:01;;;;;;;34.75;19.00;;;22.30;83.90;;;;;;5090349;28;20032;-69
2021/07/26 04:27:27;;;;;;;34.47;20.10;;;22.30;84.10;;;;;;5093803;28;20039;-69
2021/07/26 04:29:54;;;;;;;37.15;18.65;;;22.30;84.30;;;;;;5093872;28;20021;-69
2021/07/26 04:32:20;;;;;;;33.47;19.30;;;22.30;84.40;;;;;;5093726;28;20089;-69
2021/07/26 04:34:45;;;;;;;38.15;19.98;;;22.30;84.60;;;;;;5089873;28;20028;-69
2021/07/26 04:37:11;;;;;;;35.13;20.05;;;22.30;84.60;;;;;;5090223;28;20027;-69
2021/07/26 04:39:36;;;;;;;36.08;19.60;;;22.30;84.60;;;;;;5090522;28;20036;-69
2021/07/26 04:42:02;;;;;;;43.80;20.40;;;22.30;85.00;;;;;;5085809;28;20052;-69
2021/07/26 04:44:28;;;;;;;33.25;19.42;;;22.30;85.00;;;;;;5094513;28;20422;-69
2021/07/26 04:46:54;;;;;;;34.75;19.10;;;22.30;85.00;;;;;;5093992;28;20028;-72
2021/07/26 04:49:22;;;;;;;29.08;19.75;;;22.30;85.10;;;;;;5092145;28;20100;-72
2021/07/26 04:51:48;;;;;;;33.47;19.85;;;22.30;85.10;;;;;;5091236;28;20067;-71
2021/07/26 04:54:14;;;;;;;36.60;20.13;;;22.30;85.20;;;;;;5091822;28;20484;-71
2021/07/26 04:56:40;;;;;;;36.20;20.85;;;22.30;85.30;;;;;;5092339;28;20032;-71
2021/07/26 04:59:05;;;;;;;29.60;18.80;;;22.30;85.40;;;;;;5091858;28;20028;-71
2021/07/26 05:01:31;;;;;;;30.80;18.98;;;22.30;85.40;;;;;;5090916;28;20028;-71
2021/07/26 05:03:57;;;;;;;30.80;20.65;;;22.30;85.30;;;;;;5092036;28;20064;-71
2021/07/26 05:06:22;;;;;;;32.92;20.35;;;22.30;85.30;;;;;;5091823;28;20028;-69
2021/07/26 05:08:48;;;;;;;33.88;19.42;;;22.30;85.40;;;;;;5093133;28;20036;-69
2021/07/26 05:11:14;;;;;;;37.88;20.15;;;22.30;85.50;;;;;;5090199;28;20056;-69
2021/07/26 05:13:39;;;;;;;30.10;18.48;;;22.40;85.50;;;;;;5092852;28;20059;-69
2021/07/26 05:16:05;;;;;;;30.63;19.42;;;22.40;85.40;;;;;;5091664;28;20048;-69
2021/07/26 05:18:33;;;;;;;27.23;18.55;;;22.40;85.10;;;;;;5092628;28;20040;-69
2021/07/26 05:20:59;;;;;;;31.92;18.02;;;22.40;84.30;;;;;;5091859;28;20399;-69
2021/07/26 05:23:25;;;;;;;35.80;18.50;;;22.40;83.90;;;;;;5087011;28;20039;-69
2021/07/26 05:25:50;;;;;;;32.42;17.63;;;22.30;83.70;;;;;;5092873;28;20035;-70
2021/07/26 05:28:16;;;;;;;35.97;20.40;;;22.30;83.70;;;;;;5079175;28;20028;-69
2021/07/26 05:30:42;;;;;;;36.67;19.58;;;22.40;84.00;;;;;;5089273;28;20082;-69
2021/07/26 05:33:08;;;;;;;31.73;19.88;;;22.40;84.30;;;;;;5086746;28;20389;-69
2021/07/26 05:35:33;;;;;;;33.28;20.60;;;22.40;84.50;;;;;;5091820;28;20028;-69
2021/07/26 05:38:05;;;;;;;42.80;21.77;;;22.40;85.20;;;;;;5092000;28;20039;-69
2021/07/26 05:40:31;;;;;;;36.10;20.95;;;22.50;86.00;;;;;;5088959;28;20383;-69
2021/07/26 05:42:57;;;;;;;32.17;21.05;;;22.50;86.00;;;;;;5092802;28;20089;-69
2021/07/26 05:45:23;;;;;;;33.35;21.20;;;22.50;86.00;;;;;;5091249;28;20032;-69
2021/07/26 05:47:50;;;;;;;33.30;21.15;;;22.50;86.30;;;;;;5092572;28;20062;-69
2021/07/26 05:50:17;;;;;;;35.92;21.85;;;22.50;86.40;;;;;;5092512;28;20028;-69
2021/07/26 05:52:43;;;;;;;29.63;20.42;;;22.50;86.80;;;;;;5092076;28;20510;-69
2021/07/26 05:55:09;;;;;;;30.88;21.00;;;22.60;87.00;;;;;;5092721;28;20047;-69
2021/07/26 05:57:43;;;;;;;32.60;18.73;;;22.60;87.40;;;;;;5090441;28;20033;-69
2021/07/26 06:00:12;;;;;;;25.65;15.93;;;22.70;87.00;;;;;;5087437;28;20095;-69
2021/07/26 06:02:38;;;;;;;25.33;17.00;;;22.60;85.40;;;;;;5090027;28;20479;-69
2021/07/26 06:05:04;;;;;;;25.92;17.08;;;22.70;84.60;;;;;;5090475;28;20035;-69
2021/07/26 06:07:30;;;;;;;24.83;15.85;;;22.70;85.50;;;;;;5089200;28;20042;-76
2021/07/26 06:09:55;;;;;;;25.20;16.38;;;22.70;84.80;;;;;;5080756;28;20106;-70
2021/07/26 06:12:23;;;;;;;22.90;14.73;;;22.80;85.20;;;;;;5089238;28;20044;-70
2021/07/26 06:14:49;;;;;;;28.20;16.23;;;22.80;85.10;;;;;;5088443;28;20111;-70
2021/07/26 06:17:20;;;;;;;16.50;10.65;;;22.90;85.30;;;;;;5091870;28;20066;-72
2021/07/26 06:19:46;;;;;;;20.13;11.57;;;22.90;85.20;;;;;;5087314;28;20024;-72
2021/07/26 06:22:15;;;;;;;17.55;12.25;;;23.00;85.30;;;;;;5092425;28;20035;-72
2021/07/26 06:24:40;;;;;;;18.95;10.15;;;23.00;84.80;;;;;;5092684;28;20371;-71
2021/07/26 06:27:06;;;;;;;16.50;10.88;;;23.00;84.10;;;;;;5082326;28;20031;-72
2021/07/26 06:29:31;;;;;;;21.20;12.45;;;23.00;82.20;;;;;;5089498;28;20035;-72
2021/07/26 06:31:57;;;;;;;19.27;12.30;;;23.10;83.00;;;;;;5078019;28;20035;-72
2021/07/26 06:34:23;;;;;;;17.95;10.80;;;23.10;83.90;;;;;;5091204;28;20032;-72
2021/07/26 06:36:51;;;;;;;18.25;10.77;;;23.10;82.60;;;;;;5091148;28;20035;-72
2021/07/26 06:39:17;;;;;;;17.35;10.50;;;23.10;82.00;;;;;;5091681;28;20024;-72
2021/07/26 06:41:43;;;;;;;15.65;11.13;;;23.20;81.60;;;;;;5087345;28;20103;-72
2021/07/26 06:44:09;;;;;;;16.10;9.55;;;23.10;82.40;;;;;;5090924;28;20036;-72
2021/07/26 06:46:35;;;;;;;13.43;8.85;;;23.10;81.30;;;;;;5090820;28;20028;-73
2021/07/26 06:49:00;;;;;;;15.52;9.35;;;23.20;80.80;;;;;;5089593;28;20507;-72
2021/07/26 06:51:26;;;;;;;15.45;8.30;;;23.20;80.30;;;;;;5090787;28;20393;-72
2021/07/26 06:53:52;;;;;;;14.20;7.68;;;23.20;79.50;;;;;;5088723;28;20112;-72
2021/07/26 06:56:18;;;;;;;11.93;8.25;;;23.20;79.30;;;;;;5089925;28;20055;-71
2021/07/26 06:58:43;;;;;;;12.57;8.13;;;23.10;79.20;;;;;;5089557;28;20471;-72
2021/07/26 07:01:11;;;;;;;11.60;7.00;;;23.20;79.00;;;;;;5087282;28;20021;-72
2021/07/26 07:03:41;;;;;;;13.88;8.02;;;23.10;79.10;;;;;;5088705;28;20030;-72
2021/07/26 07:06:09;;;;;;;18.35;7.93;;;23.20;79.70;;;;;;5088625;28;20459;-72
2021/07/26 07:08:36;;;;;;;14.23;7.78;;;23.10;80.10;;;;;;5089924;28;20028;-72
2021/07/26 07:11:12;;;;;;;10.80;6.75;;;23.10;80.60;;;;;;5090236;28;20784;-72
2021/07/26 07:13:40;;;;;;;12.15;8.07;;;23.20;80.40;;;;;;5091375;28;20067;-71
2021/07/26 07:16:17;;;;;;;12.25;7.25;;;23.20;80.50;;;;;;5090874;28;20016;-72
2021/07/26 07:18:47;;;;;;;11.48;6.43;;;23.20;80.80;;;;;;5092852;28;20040;-72
2021/07/26 07:21:31;;;;;;;9.55;6.60;;;23.20;79.90;;;;;;5093851;28;20027;-72
2021/07/26 07:24:00;;;;;;;11.00;7.40;;;23.20;80.10;;;;;;5091120;28;20035;-67
2021/07/26 07:26:32;;;;;;;9.38;5.53;;;23.20;80.50;;;;;;5094036;28;20020;-72
2021/07/26 07:28:58;;;;;;;12.77;6.25;;;23.30;80.00;;;;;;5092611;28;20089;-72
2021/07/26 07:31:27;;;;;;;12.50;7.05;;;23.30;80.00;;;;;;5090991;28;20036;-75
2021/07/26 07:33:57;;;;;;;8.52;5.35;;;23.30;80.60;;;;;;5090884;28;20050;-72
2021/07/26 07:36:27;;;;;;;8.45;5.32;;;23.40;80.60;;;;;;5090894;28;20123;-71
2021/07/26 07:38:56;;;;;;;13.52;6.03;;;23.40;79.90;;;;;;5092051;28;20075;-71
2021/07/26 07:41:22;;;;;;;12.50;5.20;;;23.50;80.80;;;;;;5092991;28;20052;-71
2021/07/26 07:43:48;;;;;;;10.40;5.63;;;23.50;80.00;;;;;;5092942;28;20521;-72
2021/07/26 07:46:17;;;;;;;8.73;5.00;;;23.60;80.40;;;;;;5093715;28;20036;-71
2021/07/26 07:48:43;;;;;;;8.90;4.97;;;23.60;80.10;;;;;;5093180;28;20467;-74
2021/07/26 07:51:09;;;;;;;9.98;4.75;;;23.60;80.20;;;;;;5092382;28;20077;-73
2021/07/26 07:53:35;;;;;;;9.20;5.05;;;23.70;80.20;;;;;;5094009;28;20084;-74
2021/07/26 07:56:01;;;;;;;13.05;4.80;;;23.70;80.40;;;;;;5092810;28;20032;-72
2021/07/26 07:58:27;;;;;;;7.65;4.32;;;23.80;80.10;;;;;;5092852;28;20043;-75
2021/07/26 08:00:58;;;;;;;6.97;4.43;;;23.80;79.40;;;;;;5093572;28;20073;-72
2021/07/26 08:03:25;;;;;;;7.47;3.90;;;23.80;78.80;;;;;;5093288;28;20127;-72
2021/07/26 08:05:51;;;;;;;6.30;3.63;;;23.80;79.10;;;;;;5090890;28;20028;-72
2021/07/26 08:08:17;;;;;;;7.30;3.70;;;23.80;79.00;;;;;;5091633;28;20173;-69
2021/07/26 08:10:43;;;;;;;6.40;4.43;;;23.90;78.20;;;;;;5090568;28;20044;-72
2021/07/26 08:13:09;;;;;;;8.38;5.07;;;23.90;78.50;;;;;;5087425;28;20414;-72
2021/07/26 08:15:35;;;;;;;9.82;4.35;;;23.90;78.70;;;;;;5093525;28;20050;-72
2021/07/26 08:18:02;;;;;;;9.88;5.18;;;23.90;79.00;;;;;;5090458;28;20028;-72
2021/07/26 08:20:29;;;;;;;7.20;4.93;;;23.90;79.20;;;;;;5092246;28;20444;-72
2021/07/26 08:22:55;;;;;;;9.95;4.85;;;23.90;79.50;;;;;;5092949;28;20028;-72
2021/07/26 08:25:21;;;;;;;10.15;4.40;;;23.90;79.20;;;;;;5091837;28;20035;-72
2021/07/26 08:27:53;;;;;;;7.90;4.40;;;23.90;79.10;;;;;;5091079;28;20107;-73
2021/07/26 08:30:24;;;;;;;9.75;4.13;;;23.90;79.30;;;;;;5090175;28;20039;-73
2021/07/26 08:32:50;;;;;;;6.53;4.07;;;24.00;79.30;;;;;;5090183;28;20151;-72
2021/07/26 08:35:17;;;;;;;5.55;3.50;;;23.90;79.20;;;;;;5092381;28;20023;-72
2021/07/26 08:37:43;;;;;;;7.53;4.18;;;24.00;79.10;;;;;;5092263;28;20031;-72
2021/07/26 08:40:09;;;;;;;6.38;3.75;;;24.00;78.90;;;;;;5092136;28;20682;-72
2021/07/26 08:42:35;;;;;;;5.95;3.35;;;24.00;78.50;;;;;;5092217;28;20052;-72
2021/07/26 08:45:02;;;;;;;4.85;2.70;;;24.10;78.60;;;;;;5093332;28;21063;-73
2021/07/26 08:47:29;;;;;;;5.53;3.30;;;24.10;78.70;;;;;;5088749;28;20020;-72
2021/07/26 08:50:02;;;;;;;6.97;3.17;;;24.20;78.70;;;;;;5093203;28;20032;-72
2021/07/26 08:52:33;;;;;;;7.13;3.17;;;24.30;78.70;;;;;;5091276;28;20036;-72
2021/07/26 08:54:58;;;;;;;5.05;2.70;;;24.30;78.60;;;;;;5092550;28;20127;-73
2021/07/26 08:57:24;;;;;;;8.85;3.70;;;24.40;77.60;;;;;;5092353;28;20123;-70
2021/07/26 08:59:50;;;;;;;4.90;3.33;;;24.40;77.80;;;;;;5093710;28;20070;-70
2021/07/26 09:02:16;;;;;;;7.68;3.55;;;24.40;77.60;;;;;;5088537;28;20028;-70
2021/07/26 09:04:41;;;;;;;8.98;3.25;;;24.50;78.10;;;;;;5085262;28;20038;-71
2021/07/26 09:07:08;;;;;;;8.40;3.97;;;24.50;77.80;;;;;;5092532;28;20016;-70
2021/07/26 09:09:43;;;;;;;8.65;3.67;;;24.60;78.30;;;;;;5087214;28;20101;-70
2021/07/26 09:12:09;;;;;;;8.18;3.50;;;24.70;78.00;;;;;;5089049;28;20040;-71
2021/07/26 09:14:39;;;;;;;6.90;3.30;;;24.80;77.70;;;;;;5085559;28;20380;-71
2021/07/26 09:17:07;;;;;;;8.90;3.90;;;24.90;78.00;;;;;;5087919;28;20040;-71
2021/07/26 09:19:56;;;;;;;7.15;3.08;;;25.00;77.70;;;;;;5089275;28;20028;-70
2021/07/26 09:22:36;;;;;;;4.07;2.63;;;25.00;77.40;;;;;;5090561;28;20032;-71
2021/07/26 09:25:19;;;;;;;7.97;3.20;;;25.10;77.10;;;;;;5090228;28;20572;-76
2021/07/26 09:28:07;;;;;;;5.90;2.90;;;25.10;76.10;;;;;;5090453;28;20027;-71
2021/07/26 09:30:54;;;;;;;6.00;3.63;;;25.20;76.70;;;;;;5092555;28;20106;-71
2021/07/26 09:33:30;;;;;;;6.20;3.05;;;25.20;75.40;;;;;;5087555;28;20531;-71
2021/07/26 09:36:13;;;;;;;13.25;3.40;;;25.20;75.50;;;;;;5083170;28;20020;-71
2021/07/26 09:39:03;;;;;;;5.70;3.60;;;25.20;75.50;;;;;;5084701;28;20427;-70
2021/07/26 09:41:43;;;;;;;5.68;3.13;;;25.20;76.20;;;;;;5086506;28;20114;-70
2021/07/26 09:44:10;;;;;;;6.50;4.47;;;25.40;76.50;;;;;;5091587;28;20118;-70
2021/07/26 09:46:39;;;;;;;8.02;4.53;;;25.40;76.50;;;;;;5092578;28;20028;-70
2021/07/26 09:49:09;;;;;;;3.72;2.28;;;25.50;76.50;;;;;;5092337;28;20360;-70
2021/07/26 09:51:35;;;;;;;4.88;2.88;;;25.60;75.50;;;;;;5092143;28;20459;-69
2021/07/26 09:54:01;;;;;;;7.63;3.70;;;25.60;75.30;;;;;;5092830;28;20124;-69
2021/07/26 09:56:30;;;;;;;8.25;3.40;;;25.60;75.50;;;;;;5092987;28;20051;-71
2021/07/26 09:58:56;;;;;;;9.05;3.30;;;25.60;75.10;;;;;;5091492;28;20040;-72
2021/07/26 10:01:23;;;;;;;7.22;3.90;;;25.60;75.90;;;;;;5092445;28;20132;-70
2021/07/26 10:03:51;;;;;;;6.70;3.10;;;25.60;76.10;;;;;;5091642;28;20070;-72
2021/07/26 10:06:18;;;;;;;8.80;3.50;;;25.70;75.70;;;;;;5089687;28;20028;-73
2021/07/26 10:08:44;;;;;;;5.20;3.40;;;25.70;75.60;;;;;;5091968;28;20031;-72
2021/07/26 10:11:10;;;;;;;6.28;2.97;;;25.70;74.80;;;;;;5088124;28;20040;-72
2021/07/26 10:13:41;;;;;;;4.63;2.38;;;25.70;74.60;;;;;;5090942;28;20040;-71
2021/07/26 10:16:14;;;;;;;6.15;2.55;;;25.70;74.80;;;;;;5091063;28;20024;-70
2021/07/26 10:18:49;;;;;;;7.03;2.70;;;25.70;74.30;;;;;;5089957;28;20094;-69
2021/07/26 10:21:28;;;;;;;3.97;2.42;;;25.70;74.30;;;;;;5091748;28;20024;-70
2021/07/26 10:24:03;;;;;;;3.58;2.28;;;25.70;74.70;;;;;;5088201;28;20739;-70
2021/07/26 10:26:34;;;;;;;5.63;2.20;;;25.80;75.40;;;;;;5086585;28;20029;-70
2021/07/26 10:29:01;;;;;;;3.75;2.35;;;25.80;74.90;;;;;;5089304;28;20074;-70
2021/07/26 10:31:30;;;;;;;4.05;2.30;;;25.80;74.60;;;;;;5091371;28;20056;-70
2021/07/26 10:34:08;;;;;;;4.75;2.10;;;25.90;74.60;;;;;;5090678;28;20071;-70
2021/07/26 10:36:40;;;;;;;3.60;2.00;;;25.80;74.30;;;;;;5090959;28;20028;-70
2021/07/26 10:39:06;;;;;;;4.43;2.00;;;25.90;74.40;;;;;;5086865;28;20464;-70
2021/07/26 10:41:55;;;;;;;3.65;1.95;;;25.90;74.50;;;;;;5087420;28;20040;-69
2021/07/26 10:44:21;;;;;;;6.53;2.67;;;25.90;74.40;;;;;;5079662;28;20040;-70
2021/07/26 10:47:10;;;;;;;5.03;1.90;;;25.90;74.60;;;;;;5080420;28;20036;-70
2021/07/26 10:49:50;;;;;;;12.52;2.60;;;25.90;74.60;;;;;;5059948;28;20090;-70
2021/07/26 10:52:25;;;;;;;9.10;2.45;;;25.90;74.80;;;;;;5080975;28;20146;-70
2021/07/26 10:54:55;;;;;;;7.97;2.38;;;25.90;75.20;;;;;;5087194;28;20028;-71
2021/07/26 10:57:39;;;;;;;4.07;2.53;;;25.90;74.80;;;;;;5086778;28;20051;-72
2021/07/26 11:00:11;;;;;;;7.07;2.50;;;25.90;74.70;;;;;;5088126;28;20043;-70
2021/07/26 11:02:38;;;;;;;3.58;2.20;;;26.00;75.30;;;;;;5086118;28;20157;-70
2021/07/26 11:05:26;;;;;;;6.30;2.60;;;26.00;75.10;;;;;;5086747;28;20024;-71
2021/07/26 11:08:14;;;;;;;4.88;2.25;;;26.00;75.10;;;;;;5089392;28;20020;-71
2021/07/26 11:10:43;;;;;;;6.18;2.50;;;26.00;75.00;;;;;;5088210;28;20063;-71
2021/07/26 11:13:09;;;;;;;5.78;2.88;;;26.00;75.00;;;;;;5084858;28;20498;-71
2021/07/26 11:15:56;;;;;;;4.93;2.83;;;26.00;75.00;;;;;;5088259;28;20111;-71
2021/07/26 11:18:37;;;;;;;4.05;1.88;;;26.10;75.00;;;;;;5087596;28;20032;-71
2021/07/26 11:21:08;;;;;;;5.95;2.50;;;26.10;75.00;;;;;;5085329;28;20024;-74
2021/07/26 11:23:54;;;;;;;5.13;2.00;;;26.10;75.00;;;;;;5082096;28;20387;-74
2021/07/26 11:26:30;;;;;;;3.08;2.60;;;26.20;75.20;;;;;;5079565;28;20298;-75
2021/07/26 11:29:04;;;;;;;7.75;3.28;;;26.20;75.80;;;;;;5087560;28;20028;-75
2021/07/26 11:31:35;;;;;;;4.28;2.70;;;26.30;75.30;;;;;;5085990;28;20029;-75
2021/07/26 11:34:06;;;;;;;7.40;3.10;;;26.40;74.30;;;;;;5087263;28;20403;-71
2021/07/26 11:36:31;;;;;;;5.10;1.80;;;26.50;74.30;;;;;;5085160;28;20051;-72
2021/07/26 11:38:59;;;;;;;3.63;2.10;;;26.50;74.70;;;;;;5088078;28;20103;-71
2021/07/26 11:41:25;;;;;;;3.13;2.08;;;26.60;73.60;;;;;;5088318;28;20024;-72
2021/07/26 11:43:52;;;;;;;6.60;2.38;;;26.70;74.00;;;;;;5087899;28;20036;-71
2021/07/26 11:46:19;;;;;;;2.90;2.00;;;26.80;72.90;;;;;;5087849;28;20032;-71
2021/07/26 11:48:45;;;;;;;4.72;2.78;;;26.80;73.00;;;;;;5086123;28;20438;-71
2021/07/26 11:51:33;;;;;;;5.13;2.17;;;26.80;72.00;;;;;;5088803;28;20035;-72
2021/07/26 11:54:01;;;;;;;17.98;2.60;;;27.00;72.40;;;;;;5090235;28;20115;-71
2021/07/26 11:56:29;;;;;;;5.72;2.40;;;27.00;72.00;;;;;;5091113;28;20162;-71
2021/07/26 11:59:13;;;;;;;3.55;2.10;;;27.00;71.90;;;;;;5091058;28;20047;-71
2021/07/26 12:01:42;;;;;;;4.03;2.30;;;27.10;72.30;;;;;;5093895;28;20027;-71
2021/07/26 12:04:12;;;;;;;4.88;2.25;;;27.10;72.10;;;;;;5093162;28;20471;-75
2021/07/26 12:07:00;;;;;;;6.93;2.50;;;27.20;72.10;;;;;;5094280;28;20028;-74
2021/07/26 12:09:26;;;;;;;2.50;1.80;;;27.20;72.40;;;;;;5090723;28;20089;-74
2021/07/26 12:11:54;;;;;;;2.42;1.63;;;27.20;72.60;;;;;;5091607;28;20044;-75
2021/07/26 12:14:31;;;;;;;2.55;1.60;;;27.20;72.40;;;;;;5089169;28;20052;-74
2021/07/26 12:16:58;;;;;;;3.33;2.00;;;27.20;72.60;;;;;;5092806;28;20032;-72
2021/07/26 12:19:24;;;;;;;5.40;2.83;;;27.20;72.50;;;;;;5090137;28;20032;-72
2021/07/26 12:21:50;;;;;;;11.30;2.40;;;27.20;72.10;;;;;;5089155;28;20027;-72
2021/07/26 12:24:35;;;;;;;6.30;2.60;;;27.30;71.90;;;;;;5090984;28;20024;-72
2021/07/26 12:27:01;;;;;;;6.43;2.42;;;27.30;71.90;;;;;;5077225;28;20028;-72
2021/07/26 12:29:29;;;;;;;7.82;2.10;;;27.40;71.80;;;;;;5089249;28;20038;-72
2021/07/26 12:32:05;;;;;;;5.65;2.35;;;27.40;72.20;;;;;;5089137;28;20040;-76
2021/07/26 12:34:30;;;;;;;5.93;2.60;;;27.40;71.50;;;;;;5090417;28;20040;-74
2021/07/26 12:37:07;;;;;;;5.32;2.20;;;27.40;71.20;;;;;;5086908;28;20364;-76
2021/07/26 12:39:39;;;;;;;5.15;1.20;;;27.50;71.40;;;;;;5090212;28;20077;-75
2021/07/26 12:42:21;;;;;;;8.63;1.75;;;27.50;71.60;;;;;;5088978;28;20601;-76
2021/07/26 12:44:47;;;;;;;3.97;1.58;;;27.50;71.00;;;;;;5094620;28;20084;-72
2021/07/26 12:47:30;;;;;;;2.08;1.27;;;27.50;71.50;;;;;;5094085;28;20032;-76